sensor_id;sensor_type;location;lat;lon;timestamp;P1;durP1;ratioP1;P2;durP2;ratioP2
31692;SDS011;37436;53.230;6.614;2022-10-04T00:02:02;14.93;;;5.00;;
31692;SDS011;37436;53.230;6.614;2022-10-04T00:04:30;11.45;;;5.10;;
31692;SDS011;37436;53.230;6.614;2022-10-04T00:07:00;16.58;;;5.35;;
31692;SDS011;37436;53.230;6.614;2022-10-04T00:09:32;18.67;;;5.38;;
31692;SDS011;37436;53.230;6.614;2022-10-04T00:11:59;17.33;;;5.70;;
31692;SDS011;37436;53.230;6.614;2022-10-04T00:14:29;25.85;;;6.38;;
31692;SDS011;37436;53.230;6.614;2022-10-04T00:16:56;21.25;;;5.97;;
31692;SDS011;37436;53.230;6.614;2022-10-04T00:19:45;20.77;;;7.38;;
31692;SDS011;37436;53.230;6.614;2022-10-04T00:22:15;13.35;;;5.90;;
31692;SDS011;37436;53.230;6.614;2022-10-04T00:25:01;23.35;;;6.30;;
31692;SDS011;37436;53.230;6.614;2022-10-04T00:27:39;14.35;;;7.18;;
31692;SDS011;37436;53.230;6.614;2022-10-04T00:33:01;23.30;;;7.57;;
31692;SDS011;37436;53.230;6.614;2022-10-04T00:38:23;32.70;;;7.45;;
31692;SDS011;37436;53.230;6.614;2022-10-04T00:41:04;17.00;;;7.05;;
31692;SDS011;37436;53.230;6.614;2022-10-04T00:43:32;27.30;;;8.55;;
31692;SDS011;37436;53.230;6.614;2022-10-04T00:46:04;19.30;;;6.53;;
31692;SDS011;37436;53.230;6.614;2022-10-04T00:48:34;22.90;;;7.15;;
31692;SDS011;37436;53.230;6.614;2022-10-04T00:53:37;16.05;;;6.53;;
31692;SDS011;37436;53.230;6.614;2022-10-04T00:56:06;20.23;;;6.15;;
31692;SDS011;37436;53.230;6.614;2022-10-04T00:58:36;13.00;;;6.72;;
31692;SDS011;37436;53.230;6.614;2022-10-04T01:01:05;18.15;;;6.53;;
31692;SDS011;37436;53.230;6.614;2022-10-04T01:03:38;21.17;;;6.70;;
31692;SDS011;37436;53.230;6.614;2022-10-04T01:06:05;18.40;;;6.72;;
31692;SDS011;37436;53.230;6.614;2022-10-04T01:08:34;18.60;;;6.45;;
31692;SDS011;37436;53.230;6.614;2022-10-04T01:18:28;17.15;;;6.55;;
31692;SDS011;37436;53.230;6.614;2022-10-04T01:23:37;17.70;;;6.88;;
31692;SDS011;37436;53.230;6.614;2022-10-04T01:26:06;26.98;;;7.35;;
31692;SDS011;37436;53.230;6.614;2022-10-04T01:31:23;14.63;;;6.72;;
31692;SDS011;37436;53.230;6.614;2022-10-04T01:33:50;24.77;;;7.18;;
31692;SDS011;37436;53.230;6.614;2022-10-04T01:36:20;23.70;;;8.60;;
31692;SDS011;37436;53.230;6.614;2022-10-04T01:38:46;22.00;;;7.30;;
31692;SDS011;37436;53.230;6.614;2022-10-04T01:41:13;18.83;;;7.30;;
31692;SDS011;37436;53.230;6.614;2022-10-04T01:43:42;20.00;;;7.03;;
31692;SDS011;37436;53.230;6.614;2022-10-04T01:46:17;17.52;;;7.03;;
31692;SDS011;37436;53.230;6.614;2022-10-04T01:48:45;19.73;;;7.38;;
31692;SDS011;37436;53.230;6.614;2022-10-04T01:51:18;28.17;;;7.82;;
31692;SDS011;37436;53.230;6.614;2022-10-04T01:53:52;19.05;;;6.85;;
31692;SDS011;37436;53.230;6.614;2022-10-04T01:56:20;28.40;;;7.75;;
31692;SDS011;37436;53.230;6.614;2022-10-04T01:58:52;19.27;;;6.85;;
31692;SDS011;37436;53.230;6.614;2022-10-04T02:01:25;23.85;;;8.02;;
31692;SDS011;37436;53.230;6.614;2022-10-04T02:03:59;21.17;;;6.90;;
31692;SDS011;37436;53.230;6.614;2022-10-04T02:06:29;22.23;;;7.55;;
31692;SDS011;37436;53.230;6.614;2022-10-04T02:09:00;16.55;;;7.22;;
31692;SDS011;37436;53.230;6.614;2022-10-04T02:11:31;18.55;;;7.93;;
31692;SDS011;37436;53.230;6.614;2022-10-04T02:13:57;29.50;;;8.82;;
31692;SDS011;37436;53.230;6.614;2022-10-04T02:16:25;31.75;;;8.57;;
31692;SDS011;37436;53.230;6.614;2022-10-04T02:18:51;15.32;;;6.85;;
31692;SDS011;37436;53.230;6.614;2022-10-04T02:21:19;22.13;;;8.25;;
31692;SDS011;37436;53.230;6.614;2022-10-04T02:23:45;23.52;;;8.18;;
31692;SDS011;37436;53.230;6.614;2022-10-04T02:26:12;19.83;;;7.95;;
31692;SDS011;37436;53.230;6.614;2022-10-04T02:28:38;32.10;;;8.15;;
31692;SDS011;37436;53.230;6.614;2022-10-04T02:31:04;36.47;;;8.27;;
31692;SDS011;37436;53.230;6.614;2022-10-04T02:33:50;22.75;;;8.30;;
31692;SDS011;37436;53.230;6.614;2022-10-04T02:36:17;23.52;;;7.72;;
31692;SDS011;37436;53.230;6.614;2022-10-04T02:38:50;29.27;;;7.95;;
31692;SDS011;37436;53.230;6.614;2022-10-04T02:41:42;16.65;;;7.05;;
31692;SDS011;37436;53.230;6.614;2022-10-04T02:44:17;19.42;;;7.72;;
31692;SDS011;37436;53.230;6.614;2022-10-04T02:49:22;24.52;;;7.50;;
31692;SDS011;37436;53.230;6.614;2022-10-04T02:51:53;16.05;;;7.13;;
31692;SDS011;37436;53.230;6.614;2022-10-04T02:56:52;22.75;;;7.07;;
31692;SDS011;37436;53.230;6.614;2022-10-04T02:59:19;20.17;;;7.75;;
31692;SDS011;37436;53.230;6.614;2022-10-04T03:01:56;19.17;;;7.43;;
31692;SDS011;37436;53.230;6.614;2022-10-04T03:04:26;19.85;;;7.00;;
31692;SDS011;37436;53.230;6.614;2022-10-04T03:06:53;23.13;;;7.75;;
31692;SDS011;37436;53.230;6.614;2022-10-04T03:09:20;31.90;;;8.02;;
31692;SDS011;37436;53.230;6.614;2022-10-04T03:11:47;23.70;;;8.80;;
31692;SDS011;37436;53.230;6.614;2022-10-04T03:14:15;18.42;;;7.82;;
31692;SDS011;37436;53.230;6.614;2022-10-04T03:16:44;18.58;;;7.63;;
31692;SDS011;37436;53.230;6.614;2022-10-04T03:19:12;21.50;;;7.78;;
31692;SDS011;37436;53.230;6.614;2022-10-04T03:21:40;29.42;;;8.10;;
31692;SDS011;37436;53.230;6.614;2022-10-04T03:24:07;25.92;;;8.13;;
31692;SDS011;37436;53.230;6.614;2022-10-04T03:29:05;21.80;;;7.68;;
31692;SDS011;37436;53.230;6.614;2022-10-04T03:31:35;17.65;;;7.78;;
31692;SDS011;37436;53.230;6.614;2022-10-04T03:34:03;19.40;;;9.00;;
31692;SDS011;37436;53.230;6.614;2022-10-04T03:36:29;24.27;;;8.82;;
31692;SDS011;37436;53.230;6.614;2022-10-04T03:38:55;24.67;;;8.93;;
31692;SDS011;37436;53.230;6.614;2022-10-04T03:41:22;21.45;;;7.90;;
31692;SDS011;37436;53.230;6.614;2022-10-04T03:43:50;17.08;;;7.28;;
31692;SDS011;37436;53.230;6.614;2022-10-04T03:46:17;25.38;;;8.40;;
31692;SDS011;37436;53.230;6.614;2022-10-04T03:48:44;20.48;;;8.68;;
31692;SDS011;37436;53.230;6.614;2022-10-04T03:51:18;20.45;;;8.18;;
31692;SDS011;37436;53.230;6.614;2022-10-04T03:53:46;22.27;;;8.18;;
31692;SDS011;37436;53.230;6.614;2022-10-04T03:58:51;20.27;;;7.55;;
31692;SDS011;37436;53.230;6.614;2022-10-04T04:01:35;24.38;;;8.18;;
31692;SDS011;37436;53.230;6.614;2022-10-04T04:04:10;27.88;;;8.88;;
31692;SDS011;37436;53.230;6.614;2022-10-04T04:06:51;27.05;;;8.95;;
31692;SDS011;37436;53.230;6.614;2022-10-04T04:09:21;28.08;;;8.45;;
31692;SDS011;37436;53.230;6.614;2022-10-04T04:11:48;31.55;;;8.45;;
31692;SDS011;37436;53.230;6.614;2022-10-04T04:14:20;26.65;;;8.20;;
31692;SDS011;37436;53.230;6.614;2022-10-04T04:16:48;24.30;;;7.07;;
31692;SDS011;37436;53.230;6.614;2022-10-04T04:19:16;24.92;;;8.15;;
31692;SDS011;37436;53.230;6.614;2022-10-04T04:21:44;22.52;;;7.60;;
31692;SDS011;37436;53.230;6.614;2022-10-04T04:24:13;29.15;;;7.95;;
31692;SDS011;37436;53.230;6.614;2022-10-04T04:26:49;21.35;;;8.10;;
31692;SDS011;37436;53.230;6.614;2022-10-04T04:29:17;24.25;;;9.75;;
31692;SDS011;37436;53.230;6.614;2022-10-04T04:36:41;20.02;;;8.77;;
31692;SDS011;37436;53.230;6.614;2022-10-04T04:39:18;20.33;;;7.28;;
31692;SDS011;37436;53.230;6.614;2022-10-04T04:44:31;16.90;;;7.47;;
31692;SDS011;37436;53.230;6.614;2022-10-04T04:46:58;28.38;;;8.55;;
31692;SDS011;37436;53.230;6.614;2022-10-04T04:49:24;17.77;;;7.45;;
31692;SDS011;37436;53.230;6.614;2022-10-04T04:51:52;16.27;;;8.10;;
31692;SDS011;37436;53.230;6.614;2022-10-04T04:54:19;25.73;;;9.25;;
31692;SDS011;37436;53.230;6.614;2022-10-04T04:56:48;25.10;;;8.85;;
31692;SDS011;37436;53.230;6.614;2022-10-04T04:59:15;22.77;;;8.52;;
31692;SDS011;37436;53.230;6.614;2022-10-04T05:01:45;22.55;;;8.35;;
31692;SDS011;37436;53.230;6.614;2022-10-04T05:06:39;22.13;;;8.77;;
31692;SDS011;37436;53.230;6.614;2022-10-04T05:09:05;21.50;;;9.57;;
31692;SDS011;37436;53.230;6.614;2022-10-04T05:11:36;21.13;;;8.85;;
31692;SDS011;37436;53.230;6.614;2022-10-04T05:14:04;44.72;;;12.20;;
31692;SDS011;37436;53.230;6.614;2022-10-04T05:16:35;25.52;;;10.52;;
31692;SDS011;37436;53.230;6.614;2022-10-04T05:19:06;25.55;;;10.00;;
31692;SDS011;37436;53.230;6.614;2022-10-04T05:21:33;25.27;;;9.32;;
31692;SDS011;37436;53.230;6.614;2022-10-04T05:24:08;28.67;;;11.13;;
31692;SDS011;37436;53.230;6.614;2022-10-04T05:26:35;25.73;;;9.38;;
31692;SDS011;37436;53.230;6.614;2022-10-04T05:29:06;26.85;;;10.23;;
31692;SDS011;37436;53.230;6.614;2022-10-04T05:34:02;25.20;;;11.45;;
31692;SDS011;37436;53.230;6.614;2022-10-04T05:39:13;34.50;;;11.25;;
31692;SDS011;37436;53.230;6.614;2022-10-04T05:41:46;29.13;;;11.15;;
31692;SDS011;37436;53.230;6.614;2022-10-04T05:44:22;27.07;;;11.17;;
31692;SDS011;37436;53.230;6.614;2022-10-04T05:46:50;31.23;;;10.80;;
31692;SDS011;37436;53.230;6.614;2022-10-04T05:49:17;26.55;;;11.60;;
31692;SDS011;37436;53.230;6.614;2022-10-04T05:51:50;24.20;;;10.82;;
31692;SDS011;37436;53.230;6.614;2022-10-04T05:54:18;25.45;;;11.45;;
31692;SDS011;37436;53.230;6.614;2022-10-04T05:57:34;25.20;;;11.88;;
31692;SDS011;37436;53.230;6.614;2022-10-04T06:15:22;41.90;;;13.23;;
31692;SDS011;37436;53.230;6.614;2022-10-04T06:23:17;25.33;;;10.50;;
31692;SDS011;37436;53.230;6.614;2022-10-04T06:28:33;23.58;;;11.48;;
31692;SDS011;37436;53.230;6.614;2022-10-04T06:35:58;29.52;;;11.38;;
31692;SDS011;37436;53.230;6.614;2022-10-04T06:38:32;23.42;;;10.95;;
31692;SDS011;37436;53.230;6.614;2022-10-04T06:41:12;31.53;;;11.63;;
31692;SDS011;37436;53.230;6.614;2022-10-04T06:54:24;17.35;;;8.20;;
31692;SDS011;37436;53.230;6.614;2022-10-04T06:59:44;21.50;;;8.25;;
31692;SDS011;37436;53.230;6.614;2022-10-04T07:02:12;24.35;;;8.23;;
31692;SDS011;37436;53.230;6.614;2022-10-04T07:09:51;26.30;;;8.30;;
31692;SDS011;37436;53.230;6.614;2022-10-04T07:12:19;20.25;;;8.13;;
31692;SDS011;37436;53.230;6.614;2022-10-04T07:14:46;23.85;;;7.53;;
31692;SDS011;37436;53.230;6.614;2022-10-04T07:17:16;26.25;;;9.02;;
31692;SDS011;37436;53.230;6.614;2022-10-04T07:19:47;15.55;;;8.02;;
31692;SDS011;37436;53.230;6.614;2022-10-04T07:23:01;19.60;;;8.68;;
31692;SDS011;37436;53.230;6.614;2022-10-04T07:25:12;21.52;;;9.02;;
31692;SDS011;37436;53.230;6.614;2022-10-04T07:27:54;22.88;;;9.50;;
31692;SDS011;37436;53.230;6.614;2022-10-04T07:30:46;21.42;;;8.10;;
31692;SDS011;37436;53.230;6.614;2022-10-04T07:33:14;22.25;;;9.07;;
31692;SDS011;37436;53.230;6.614;2022-10-04T07:35:52;16.83;;;9.02;;
31692;SDS011;37436;53.230;6.614;2022-10-04T07:38:22;15.55;;;8.90;;
31692;SDS011;37436;53.230;6.614;2022-10-04T07:43:55;20.90;;;8.07;;
31692;SDS011;37436;53.230;6.614;2022-10-04T07:48:49;14.02;;;8.13;;
31692;SDS011;37436;53.230;6.614;2022-10-04T07:51:22;16.02;;;8.70;;
31692;SDS011;37436;53.230;6.614;2022-10-04T07:53:58;21.15;;;8.40;;
31692;SDS011;37436;53.230;6.614;2022-10-04T07:56:30;24.85;;;7.78;;
31692;SDS011;37436;53.230;6.614;2022-10-04T08:01:39;22.85;;;8.38;;
31692;SDS011;37436;53.230;6.614;2022-10-04T08:04:10;21.40;;;8.23;;
31692;SDS011;37436;53.230;6.614;2022-10-04T08:14:20;15.15;;;7.72;;
31692;SDS011;37436;53.230;6.614;2022-10-04T08:27:32;22.52;;;9.20;;
31692;SDS011;37436;53.230;6.614;2022-10-04T08:30:09;21.35;;;8.65;;
31692;SDS011;37436;53.230;6.614;2022-10-04T08:41:17;18.77;;;7.70;;
31692;SDS011;37436;53.230;6.614;2022-10-04T08:48:55;10.68;;;6.88;;
31692;SDS011;37436;53.230;6.614;2022-10-04T08:53:55;16.75;;;7.00;;
31692;SDS011;37436;53.230;6.614;2022-10-04T08:56:47;13.82;;;6.90;;
31692;SDS011;37436;53.230;6.614;2022-10-04T09:04:34;14.93;;;7.05;;
31692;SDS011;37436;53.230;6.614;2022-10-04T09:22:18;20.98;;;6.65;;
31692;SDS011;37436;53.230;6.614;2022-10-04T09:24:59;12.70;;;5.65;;
31692;SDS011;37436;53.230;6.614;2022-10-04T09:35:28;9.02;;;5.72;;
31692;SDS011;37436;53.230;6.614;2022-10-04T09:41:06;8.40;;;4.03;;
31692;SDS011;37436;53.230;6.614;2022-10-04T09:59:51;13.88;;;5.95;;
31692;SDS011;37436;53.230;6.614;2022-10-04T10:02:31;8.77;;;5.85;;
31692;SDS011;37436;53.230;6.614;2022-10-04T10:42:05;10.10;;;4.43;;
31692;SDS011;37436;53.230;6.614;2022-10-04T10:50:04;6.55;;;3.17;;
31692;SDS011;37436;53.230;6.614;2022-10-04T10:55:27;4.97;;;3.50;;
31692;SDS011;37436;53.230;6.614;2022-10-04T11:00:42;8.38;;;3.92;;
31692;SDS011;37436;53.230;6.614;2022-10-04T11:06:01;11.85;;;4.20;;
31692;SDS011;37436;53.230;6.614;2022-10-04T11:24:56;8.23;;;3.38;;
31692;SDS011;37436;53.230;6.614;2022-10-04T11:30:06;9.57;;;3.75;;
31692;SDS011;37436;53.230;6.614;2022-10-04T11:38:23;6.47;;;3.53;;
31692;SDS011;37436;53.230;6.614;2022-10-04T11:40:56;5.85;;;3.28;;
31692;SDS011;37436;53.230;6.614;2022-10-04T11:57:09;7.57;;;3.10;;
31692;SDS011;37436;53.230;6.614;2022-10-04T11:59:28;9.27;;;3.22;;
31692;SDS011;37436;53.230;6.614;2022-10-04T12:04:54;7.78;;;2.83;;
31692;SDS011;37436;53.230;6.614;2022-10-04T12:13:00;10.30;;;3.45;;
31692;SDS011;37436;53.230;6.614;2022-10-04T12:15:40;12.43;;;3.47;;
31692;SDS011;37436;53.230;6.614;2022-10-04T12:45:03;7.32;;;3.42;;
31692;SDS011;37436;53.230;6.614;2022-10-04T12:53:00;6.85;;;3.63;;
31692;SDS011;37436;53.230;6.614;2022-10-04T12:55:45;10.32;;;3.33;;
31692;SDS011;37436;53.230;6.614;2022-10-04T13:00:42;9.20;;;3.63;;
31692;SDS011;37436;53.230;6.614;2022-10-04T13:03:25;13.35;;;4.20;;
31692;SDS011;37436;53.230;6.614;2022-10-04T13:18:39;7.65;;;3.95;;
31692;SDS011;37436;53.230;6.614;2022-10-04T13:21:15;9.75;;;4.43;;
31692;SDS011;37436;53.230;6.614;2022-10-04T13:26:38;10.40;;;4.15;;
31692;SDS011;37436;53.230;6.614;2022-10-04T13:34:22;14.10;;;6.13;;
31692;SDS011;37436;53.230;6.614;2022-10-04T13:39:23;11.80;;;4.80;;
31692;SDS011;37436;53.230;6.614;2022-10-04T13:42:08;11.07;;;6.28;;
31692;SDS011;37436;53.230;6.614;2022-10-04T13:58:26;8.15;;;4.95;;
31692;SDS011;37436;53.230;6.614;2022-10-04T14:03:38;8.85;;;4.75;;
31692;SDS011;37436;53.230;6.614;2022-10-04T14:06:16;10.23;;;5.22;;
31692;SDS011;37436;53.230;6.614;2022-10-04T14:21:45;11.30;;;5.30;;
31692;SDS011;37436;53.230;6.614;2022-10-04T14:34:38;7.30;;;3.80;;
31692;SDS011;37436;53.230;6.614;2022-10-04T14:53:18;9.30;;;3.05;;
31692;SDS011;37436;53.230;6.614;2022-10-04T14:58:33;7.90;;;3.65;;
31692;SDS011;37436;53.230;6.614;2022-10-04T15:06:10;7.97;;;3.40;;
31692;SDS011;37436;53.230;6.614;2022-10-04T15:11:16;13.35;;;3.60;;
31692;SDS011;37436;53.230;6.614;2022-10-04T15:13:51;7.57;;;3.30;;
31692;SDS011;37436;53.230;6.614;2022-10-04T15:16:22;6.65;;;3.10;;
31692;SDS011;37436;53.230;6.614;2022-10-04T15:18:56;8.80;;;3.35;;
31692;SDS011;37436;53.230;6.614;2022-10-04T15:23:56;8.00;;;2.85;;
31692;SDS011;37436;53.230;6.614;2022-10-04T15:34:30;7.97;;;3.28;;
31692;SDS011;37436;53.230;6.614;2022-10-04T15:37:03;10.32;;;2.92;;
31692;SDS011;37436;53.230;6.614;2022-10-04T15:39:53;8.23;;;2.85;;
31692;SDS011;37436;53.230;6.614;2022-10-04T15:50:20;9.27;;;2.95;;
31692;SDS011;37436;53.230;6.614;2022-10-04T16:05:46;7.45;;;3.08;;
31692;SDS011;37436;53.230;6.614;2022-10-04T16:08:24;10.25;;;2.92;;
31692;SDS011;37436;53.230;6.614;2022-10-04T16:11:02;6.15;;;2.83;;
31692;SDS011;37436;53.230;6.614;2022-10-04T16:31:40;10.32;;;3.20;;
31692;SDS011;37436;53.230;6.614;2022-10-04T16:34:25;12.07;;;3.10;;
31692;SDS011;37436;53.230;6.614;2022-10-04T16:37:12;5.45;;;2.85;;
31692;SDS011;37436;53.230;6.614;2022-10-04T16:43:06;7.70;;;3.67;;
31692;SDS011;37436;53.230;6.614;2022-10-04T16:53:22;7.45;;;3.78;;
31692;SDS011;37436;53.230;6.614;2022-10-04T16:55:57;5.03;;;3.33;;
31692;SDS011;37436;53.230;6.614;2022-10-04T16:58:39;11.25;;;3.22;;
31692;SDS011;37436;53.230;6.614;2022-10-04T17:01:26;7.70;;;3.00;;
31692;SDS011;37436;53.230;6.614;2022-10-04T17:09:29;11.40;;;3.50;;
31692;SDS011;37436;53.230;6.614;2022-10-04T17:17:06;10.15;;;4.90;;
31692;SDS011;37436;53.230;6.614;2022-10-04T17:19:43;10.98;;;3.38;;
31692;SDS011;37436;53.230;6.614;2022-10-04T17:24:41;6.55;;;3.92;;
31692;SDS011;37436;53.230;6.614;2022-10-04T17:35:18;12.20;;;4.30;;
31692;SDS011;37436;53.230;6.614;2022-10-04T17:40:35;12.13;;;3.42;;
31692;SDS011;37436;53.230;6.614;2022-10-04T17:43:10;10.63;;;3.95;;
31692;SDS011;37436;53.230;6.614;2022-10-04T17:48:26;10.00;;;3.50;;
31692;SDS011;37436;53.230;6.614;2022-10-04T17:53:59;6.53;;;3.88;;
31692;SDS011;37436;53.230;6.614;2022-10-04T17:59:25;11.15;;;4.13;;
31692;SDS011;37436;53.230;6.614;2022-10-04T18:01:53;12.57;;;4.85;;
31692;SDS011;37436;53.230;6.614;2022-10-04T18:04:25;11.43;;;4.30;;
31692;SDS011;37436;53.230;6.614;2022-10-04T18:07:03;12.20;;;4.80;;
31692;SDS011;37436;53.230;6.614;2022-10-04T18:16:55;8.45;;;4.55;;
31692;SDS011;37436;53.230;6.614;2022-10-04T18:22:10;7.80;;;4.28;;
31692;SDS011;37436;53.230;6.614;2022-10-04T18:24:45;11.73;;;5.65;;
31692;SDS011;37436;53.230;6.614;2022-10-04T18:29:42;8.23;;;4.70;;
31692;SDS011;37436;53.230;6.614;2022-10-04T18:34:54;9.30;;;4.18;;
31692;SDS011;37436;53.230;6.614;2022-10-04T18:37:34;16.38;;;4.70;;
31692;SDS011;37436;53.230;6.614;2022-10-04T18:40:26;7.57;;;4.25;;
31692;SDS011;37436;53.230;6.614;2022-10-04T18:42:57;9.88;;;4.53;;
31692;SDS011;37436;53.230;6.614;2022-10-04T18:45:31;10.80;;;5.03;;
31692;SDS011;37436;53.230;6.614;2022-10-04T18:48:05;12.95;;;4.38;;
31692;SDS011;37436;53.230;6.614;2022-10-04T18:50:39;9.10;;;4.28;;
31692;SDS011;37436;53.230;6.614;2022-10-04T18:53:18;8.07;;;5.28;;
31692;SDS011;37436;53.230;6.614;2022-10-04T18:55:59;11.05;;;5.32;;
31692;SDS011;37436;53.230;6.614;2022-10-04T19:06:50;12.30;;;4.72;;
31692;SDS011;37436;53.230;6.614;2022-10-04T19:11:59;9.18;;;4.25;;
31692;SDS011;37436;53.230;6.614;2022-10-04T19:27:32;10.68;;;4.97;;
31692;SDS011;37436;53.230;6.614;2022-10-04T19:30:20;10.60;;;5.35;;
31692;SDS011;37436;53.230;6.614;2022-10-04T19:35:23;16.70;;;5.97;;
31692;SDS011;37436;53.230;6.614;2022-10-04T19:37:56;20.10;;;5.60;;
31692;SDS011;37436;53.230;6.614;2022-10-04T19:45:30;16.60;;;5.50;;
31692;SDS011;37436;53.230;6.614;2022-10-04T19:47:59;11.90;;;5.90;;
31692;SDS011;37436;53.230;6.614;2022-10-04T19:50:27;18.70;;;6.30;;
31692;SDS011;37436;53.230;6.614;2022-10-04T19:52:58;20.20;;;6.35;;
31692;SDS011;37436;53.230;6.614;2022-10-04T20:00:36;7.95;;;4.95;;
31692;SDS011;37436;53.230;6.614;2022-10-04T20:03:04;14.52;;;5.82;;
31692;SDS011;37436;53.230;6.614;2022-10-04T20:05:34;10.10;;;5.40;;
31692;SDS011;37436;53.230;6.614;2022-10-04T20:08:07;10.73;;;5.70;;
31692;SDS011;37436;53.230;6.614;2022-10-04T20:10:36;11.32;;;5.30;;
31692;SDS011;37436;53.230;6.614;2022-10-04T20:13:16;14.27;;;5.88;;
31692;SDS011;37436;53.230;6.614;2022-10-04T20:15:46;12.75;;;5.97;;
31692;SDS011;37436;53.230;6.614;2022-10-04T20:26:01;17.75;;;5.72;;
31692;SDS011;37436;53.230;6.614;2022-10-04T20:30:54;16.08;;;6.25;;
31692;SDS011;37436;53.230;6.614;2022-10-04T20:38:59;9.75;;;5.80;;
31692;SDS011;37436;53.230;6.614;2022-10-04T20:46:59;13.63;;;6.07;;
31692;SDS011;37436;53.230;6.614;2022-10-04T20:49:25;9.88;;;5.38;;
31692;SDS011;37436;53.230;6.614;2022-10-04T20:51:51;13.65;;;6.47;;
31692;SDS011;37436;53.230;6.614;2022-10-04T20:54:18;15.20;;;6.43;;
31692;SDS011;37436;53.230;6.614;2022-10-04T20:56:48;10.40;;;7.20;;
31692;SDS011;37436;53.230;6.614;2022-10-04T20:59:16;12.27;;;6.03;;
31692;SDS011;37436;53.230;6.614;2022-10-04T21:01:42;12.13;;;6.35;;
31692;SDS011;37436;53.230;6.614;2022-10-04T21:04:26;12.07;;;5.57;;
31692;SDS011;37436;53.230;6.614;2022-10-04T21:07:07;13.13;;;5.78;;
31692;SDS011;37436;53.230;6.614;2022-10-04T21:09:36;18.17;;;6.28;;
31692;SDS011;37436;53.230;6.614;2022-10-04T21:12:03;13.13;;;6.00;;
31692;SDS011;37436;53.230;6.614;2022-10-04T21:14:33;17.17;;;6.30;;
31692;SDS011;37436;53.230;6.614;2022-10-04T21:17:00;15.77;;;6.38;;
31692;SDS011;37436;53.230;6.614;2022-10-04T21:22:09;21.42;;;6.85;;
31692;SDS011;37436;53.230;6.614;2022-10-04T21:27:39;11.13;;;5.80;;
31692;SDS011;37436;53.230;6.614;2022-10-04T21:30:14;17.33;;;6.60;;
31692;SDS011;37436;53.230;6.614;2022-10-04T21:32:40;9.77;;;5.65;;
31692;SDS011;37436;53.230;6.614;2022-10-04T21:35:06;10.23;;;6.13;;
31692;SDS011;37436;53.230;6.614;2022-10-04T21:37:33;12.27;;;6.38;;
31692;SDS011;37436;53.230;6.614;2022-10-04T21:39:59;12.40;;;6.22;;
31692;SDS011;37436;53.230;6.614;2022-10-04T21:42:25;12.55;;;6.70;;
31692;SDS011;37436;53.230;6.614;2022-10-04T21:44:51;14.27;;;6.10;;
31692;SDS011;37436;53.230;6.614;2022-10-04T21:47:18;22.70;;;6.85;;
31692;SDS011;37436;53.230;6.614;2022-10-04T21:49:50;17.10;;;6.68;;
31692;SDS011;37436;53.230;6.614;2022-10-04T21:52:16;12.95;;;6.18;;
31692;SDS011;37436;53.230;6.614;2022-10-04T21:54:43;17.25;;;7.38;;
31692;SDS011;37436;53.230;6.614;2022-10-04T21:57:09;11.25;;;6.57;;
31692;SDS011;37436;53.230;6.614;2022-10-04T21:59:35;13.77;;;6.82;;
31692;SDS011;37436;53.230;6.614;2022-10-04T22:02:02;15.65;;;6.60;;
31692;SDS011;37436;53.230;6.614;2022-10-04T22:04:28;15.18;;;5.70;;
31692;SDS011;37436;53.230;6.614;2022-10-04T22:06:54;13.93;;;6.07;;
31692;SDS011;37436;53.230;6.614;2022-10-04T22:09:20;15.23;;;6.72;;
31692;SDS011;37436;53.230;6.614;2022-10-04T22:11:46;12.25;;;7.00;;
31692;SDS011;37436;53.230;6.614;2022-10-04T22:14:12;13.98;;;6.40;;
31692;SDS011;37436;53.230;6.614;2022-10-04T22:16:38;13.27;;;6.40;;
31692;SDS011;37436;53.230;6.614;2022-10-04T22:19:04;13.88;;;6.30;;
31692;SDS011;37436;53.230;6.614;2022-10-04T22:21:30;14.18;;;6.47;;
31692;SDS011;37436;53.230;6.614;2022-10-04T22:23:56;16.02;;;6.82;;
31692;SDS011;37436;53.230;6.614;2022-10-04T22:26:24;14.10;;;6.70;;
31692;SDS011;37436;53.230;6.614;2022-10-04T22:28:51;15.50;;;6.60;;
31692;SDS011;37436;53.230;6.614;2022-10-04T22:31:19;13.95;;;5.95;;
31692;SDS011;37436;53.230;6.614;2022-10-04T22:33:46;13.77;;;6.18;;
31692;SDS011;37436;53.230;6.614;2022-10-04T22:36:17;11.82;;;5.90;;
31692;SDS011;37436;53.230;6.614;2022-10-04T22:38:46;17.75;;;7.25;;
31692;SDS011;37436;53.230;6.614;2022-10-04T22:41:13;11.00;;;6.38;;
31692;SDS011;37436;53.230;6.614;2022-10-04T22:43:39;19.02;;;6.18;;
31692;SDS011;37436;53.230;6.614;2022-10-04T22:46:16;12.30;;;6.57;;
31692;SDS011;37436;53.230;6.614;2022-10-04T22:48:43;13.50;;;6.53;;
31692;SDS011;37436;53.230;6.614;2022-10-04T22:51:10;18.92;;;6.55;;
31692;SDS011;37436;53.230;6.614;2022-10-04T22:53:39;16.30;;;6.30;;
31692;SDS011;37436;53.230;6.614;2022-10-04T22:56:06;11.52;;;6.28;;
31692;SDS011;37436;53.230;6.614;2022-10-04T22:58:32;12.55;;;6.78;;
31692;SDS011;37436;53.230;6.614;2022-10-04T23:00:58;13.95;;;6.70;;
31692;SDS011;37436;53.230;6.614;2022-10-04T23:03:31;13.60;;;6.47;;
31692;SDS011;37436;53.230;6.614;2022-10-04T23:05:59;14.07;;;6.57;;
31692;SDS011;37436;53.230;6.614;2022-10-04T23:08:25;18.38;;;6.93;;
31692;SDS011;37436;53.230;6.614;2022-10-04T23:10:54;17.70;;;6.63;;
31692;SDS011;37436;53.230;6.614;2022-10-04T23:13:21;17.13;;;6.68;;
31692;SDS011;37436;53.230;6.614;2022-10-04T23:15:47;15.77;;;6.53;;
31692;SDS011;37436;53.230;6.614;2022-10-04T23:18:14;13.93;;;6.63;;
31692;SDS011;37436;53.230;6.614;2022-10-04T23:20:41;12.27;;;6.40;;
31692;SDS011;37436;53.230;6.614;2022-10-04T23:23:10;9.77;;;6.25;;
31692;SDS011;37436;53.230;6.614;2022-10-04T23:25:45;15.10;;;8.55;;
31692;SDS011;37436;53.230;6.614;2022-10-04T23:28:12;13.98;;;7.07;;
31692;SDS011;37436;53.230;6.614;2022-10-04T23:30:38;14.82;;;6.75;;
31692;SDS011;37436;53.230;6.614;2022-10-04T23:35:39;16.25;;;6.93;;
31692;SDS011;37436;53.230;6.614;2022-10-04T23:38:07;12.05;;;5.65;;
31692;SDS011;37436;53.230;6.614;2022-10-04T23:40:35;19.02;;;6.88;;
31692;SDS011;37436;53.230;6.614;2022-10-04T23:43:01;13.68;;;7.53;;
31692;SDS011;37436;53.230;6.614;2022-10-04T23:45:28;11.13;;;6.93;;
31692;SDS011;37436;53.230;6.614;2022-10-04T23:47:55;19.17;;;7.85;;
31692;SDS011;37436;53.230;6.614;2022-10-04T23:50:31;16.08;;;6.80;;
31692;SDS011;37436;53.230;6.614;2022-10-04T23:52:59;14.30;;;6.63;;
31692;SDS011;37436;53.230;6.614;2022-10-04T23:55:40;9.73;;;5.32;;
31692;SDS011;37436;53.230;6.614;2022-10-04T23:58:14;13.07;;;6.65;;
